Time;durP1;ratioP1;P1;durP2;ratioP2;P2;SDS_P1;SDS_P2;PMS_P1;PMS_P2;Temp;Humidity;BMP_temperature;BMP_pressure;BME280_temperature;BME280_humidity;BME280_pressure;Samples;Min_cycle;Max_cycle;Signal;HPM_P1;HPM_P2
2021/02/28 00:00:18;;;;;;;2.01;1.80;;;;;;;19.03;45.20;102473.42;;;;-52
2021/02/28 00:03:18;;;;;;;2.05;1.88;;;;;;;19.00;45.24;102479.02;;;;-57
2021/02/28 00:06:18;;;;;;;2.13;1.81;;;;;;;18.97;45.19;102469.23;;;;-59
2021/02/28 00:09:18;;;;;;;2.25;1.95;;;;;;;18.96;45.20;102467.88;;;;-57
2021/02/28 00:12:18;;;;;;;1.84;1.74;;;;;;;18.93;45.20;102469.98;;;;-57
2021/02/28 00:15:18;;;;;;;9.45;1.91;;;;;;;18.92;45.22;102466.58;;;;-52
2021/02/28 00:18:18;;;;;;;1.95;1.81;;;;;;;18.90;45.20;102464.70;;;;-53
2021/02/28 00:21:18;;;;;;;2.75;1.92;;;;;;;18.88;45.26;102463.65;;;;-52
2021/02/28 00:24:18;;;;;;;2.28;1.77;;;;;;;18.87;45.21;102460.94;;;;-59
2021/02/28 00:27:18;;;;;;;2.16;1.82;;;;;;;18.85;45.21;102453.79;;;;-59
2021/02/28 00:30:18;;;;;;;2.02;1.80;;;;;;;18.84;45.24;102451.38;;;;-52
2021/02/28 00:33:18;;;;;;;1.86;1.74;;;;;;;18.81;45.26;102450.71;;;;-52
2021/02/28 00:36:18;;;;;;;2.00;1.80;;;;;;;18.80;45.23;102447.67;;;;-53
2021/02/28 00:39:18;;;;;;;2.07;1.80;;;;;;;18.78;45.21;102441.70;;;;-52
2021/02/28 00:42:18;;;;;;;2.01;1.80;;;;;;;18.76;45.26;102444.56;;;;-52
2021/02/28 00:45:18;;;;;;;2.09;1.89;;;;;;;18.75;45.23;102441.81;;;;-52
2021/02/28 00:48:18;;;;;;;2.15;1.83;;;;;;;18.73;45.25;102444.42;;;;-52
2021/02/28 00:51:18;;;;;;;1.93;1.81;;;;;;;18.72;45.22;102435.93;;;;-52
2021/02/28 00:54:18;;;;;;;1.80;1.70;;;;;;;18.71;45.29;102435.46;;;;-52
2021/02/28 00:57:18;;;;;;;1.83;1.73;;;;;;;18.69;45.24;102433.52;;;;-52
2021/02/28 01:00:18;;;;;;;1.91;1.80;;;;;;;18.67;45.29;102437.99;;;;-52
2021/02/28 01:03:18;;;;;;;1.77;1.67;;;;;;;18.65;45.30;102430.51;;;;-52
2021/02/28 01:06:18;;;;;;;1.98;1.78;;;;;;;18.63;45.23;102427.59;;;;-51
2021/02/28 01:09:18;;;;;;;1.71;1.58;;;;;;;18.62;45.32;102427.96;;;;-52
2021/02/28 01:12:18;;;;;;;2.01;1.79;;;;;;;18.61;45.29;102424.66;;;;-52
2021/02/28 01:15:18;;;;;;;2.02;1.73;;;;;;;18.59;45.29;102426.03;;;;-52
2021/02/28 01:18:18;;;;;;;2.06;1.77;;;;;;;18.58;45.29;102429.75;;;;-52
2021/02/28 01:21:18;;;;;;;1.80;1.70;;;;;;;18.57;45.33;102427.82;;;;-52
2021/02/28 01:24:18;;;;;;;1.84;1.70;;;;;;;18.56;45.30;102425.75;;;;-52
2021/02/28 01:27:18;;;;;;;1.87;1.77;;;;;;;18.55;45.35;102423.84;;;;-52
2021/02/28 01:30:18;;;;;;;1.85;1.70;;;;;;;18.53;45.30;102424.20;;;;-51
2021/02/28 01:33:18;;;;;;;2.25;1.83;;;;;;;18.52;45.34;102420.41;;;;-57
2021/02/28 01:36:18;;;;;;;1.70;1.60;;;;;;;18.51;45.31;102416.92;;;;-56
2021/02/28 01:39:18;;;;;;;1.83;1.71;;;;;;;18.49;45.30;102411.61;;;;-57
2021/02/28 01:42:18;;;;;;;1.93;1.83;;;;;;;18.48;45.31;102416.33;;;;-52
2021/02/28 01:45:18;;;;;;;1.84;1.70;;;;;;;18.46;45.32;102412.69;;;;-52
2021/02/28 01:48:18;;;;;;;1.93;1.79;;;;;;;18.45;45.29;102407.47;;;;-52
2021/02/28 01:51:18;;;;;;;1.85;1.75;;;;;;;18.44;45.32;102411.20;;;;-52
2021/02/28 01:54:18;;;;;;;2.23;1.87;;;;;;;18.43;45.28;102410.33;;;;-51
2021/02/28 01:57:18;;;;;;;1.84;1.73;;;;;;;18.41;45.30;102412.33;;;;-52
2021/02/28 02:00:18;;;;;;;2.44;1.80;;;;;;;18.40;45.30;102413.16;;;;-52
2021/02/28 02:03:18;;;;;;;1.86;1.76;;;;;;;18.39;45.28;102412.56;;;;-51
2021/02/28 02:06:18;;;;;;;1.69;1.59;;;;;;;18.38;45.34;102410.32;;;;-51
2021/02/28 02:09:18;;;;;;;1.95;1.75;;;;;;;18.37;45.32;102402.73;;;;-51
2021/02/28 02:12:18;;;;;;;1.89;1.71;;;;;;;18.36;45.33;102402.15;;;;-52
2021/02/28 02:15:18;;;;;;;1.81;1.70;;;;;;;18.35;45.30;102399.48;;;;-51
2021/02/28 02:18:18;;;;;;;2.10;1.86;;;;;;;18.34;45.40;102399.49;;;;-51
2021/02/28 02:21:18;;;;;;;2.03;1.79;;;;;;;18.32;45.34;102393.65;;;;-51
2021/02/28 02:24:18;;;;;;;2.33;1.65;;;;;;;18.31;45.36;102390.61;;;;-52
2021/02/28 02:27:18;;;;;;;1.95;1.75;;;;;;;18.30;45.30;102386.51;;;;-51
2021/02/28 02:30:18;;;;;;;2.09;1.81;;;;;;;18.29;45.32;102382.98;;;;-52
2021/02/28 02:33:18;;;;;;;2.07;1.83;;;;;;;18.27;45.32;102385.76;;;;-51
2021/02/28 02:36:18;;;;;;;1.76;1.66;;;;;;;18.26;45.33;102385.89;;;;-59
2021/02/28 02:39:18;;;;;;;2.01;1.72;;;;;;;18.25;45.36;102386.81;;;;-59
2021/02/28 02:42:18;;;;;;;1.80;1.70;;;;;;;18.25;45.32;102382.02;;;;-59
2021/02/28 02:45:18;;;;;;;2.09;1.88;;;;;;;18.24;45.34;102379.92;;;;-59
2021/02/28 02:48:18;;;;;;;1.85;1.75;;;;;;;18.23;45.35;102380.54;;;;-58
2021/02/28 02:51:18;;;;;;;1.65;1.55;;;;;;;18.22;45.32;102379.34;;;;-59
2021/02/28 02:54:18;;;;;;;1.85;1.70;;;;;;;18.21;45.30;102381.03;;;;-58
2021/02/28 02:57:18;;;;;;;1.71;1.61;;;;;;;18.19;45.29;102373.96;;;;-59
2021/02/28 03:00:18;;;;;;;1.77;1.67;;;;;;;18.18;45.26;102374.92;;;;-59
2021/02/28 03:03:18;;;;;;;2.01;1.83;;;;;;;18.17;45.28;102369.99;;;;-59
2021/02/28 03:06:18;;;;;;;1.70;1.60;;;;;;;18.16;45.32;102370.78;;;;-57
2021/02/28 03:09:18;;;;;;;1.80;1.70;;;;;;;18.15;45.32;102365.52;;;;-57
2021/02/28 03:12:18;;;;;;;1.85;1.74;;;;;;;18.14;45.34;102363.55;;;;-56
2021/02/28 03:15:24;;;;;;;1.80;1.70;;;;;;;18.13;45.33;102365.44;;;;-52
2021/02/28 03:18:18;;;;;;;1.77;1.67;;;;;;;18.13;45.34;102363.06;;;;-52
2021/02/28 03:21:18;;;;;;;2.00;1.80;;;;;;;18.11;45.29;102359.67;;;;-52
2021/02/28 03:24:18;;;;;;;1.93;1.74;;;;;;;18.10;45.32;102365.63;;;;-52
2021/02/28 03:27:18;;;;;;;1.80;1.70;;;;;;;18.10;45.40;102361.66;;;;-52
2021/02/28 03:30:18;;;;;;;1.87;1.69;;;;;;;18.08;45.35;102357.61;;;;-52
2021/02/28 03:33:18;;;;;;;1.87;1.77;;;;;;;18.08;45.36;102360.35;;;;-52
2021/02/28 03:36:18;;;;;;;1.85;1.75;;;;;;;18.07;45.35;102360.87;;;;-52
2021/02/28 03:39:18;;;;;;;1.70;1.60;;;;;;;18.06;45.32;102360.03;;;;-52
2021/02/28 03:42:18;;;;;;;2.07;1.60;;;;;;;18.06;45.31;102362.47;;;;-52
2021/02/28 03:45:18;;;;;;;1.73;1.63;;;;;;;18.03;45.29;102357.21;;;;-52
2021/02/28 03:48:18;;;;;;;1.77;1.67;;;;;;;18.03;45.31;102356.72;;;;-52
2021/02/28 03:51:18;;;;;;;1.77;1.50;;;;;;;18.02;45.35;102357.11;;;;-52
2021/02/28 03:54:18;;;;;;;1.71;1.61;;;;;;;18.02;45.35;102352.71;;;;-52
2021/02/28 03:57:18;;;;;;;1.83;1.73;;;;;;;18.01;45.33;102350.94;;;;-57
2021/02/28 04:00:18;;;;;;;1.76;1.61;;;;;;;17.99;45.26;102350.50;;;;-57
2021/02/28 04:03:18;;;;;;;2.03;1.70;;;;;;;17.98;45.29;102349.38;;;;-57
2021/02/28 04:06:18;;;;;;;1.98;1.70;;;;;;;17.97;45.30;102353.75;;;;-56
2021/02/28 04:09:19;;;;;;;1.70;1.60;;;;;;;17.97;45.37;102351.22;;;;-57
2021/02/28 04:12:18;;;;;;;1.80;1.70;;;;;;;17.96;45.37;102352.21;;;;-58
2021/02/28 04:15:18;;;;;;;1.70;1.60;;;;;;;17.95;45.25;102358.16;;;;-56
2021/02/28 04:18:18;;;;;;;1.91;1.75;;;;;;;17.94;45.30;102356.03;;;;-57
2021/02/28 04:21:18;;;;;;;1.75;1.65;;;;;;;17.93;45.25;102356.33;;;;-57
2021/02/28 04:24:18;;;;;;;1.72;1.62;;;;;;;17.92;45.34;102353.57;;;;-57
2021/02/28 04:27:18;;;;;;;1.95;1.79;;;;;;;17.92;45.35;102357.30;;;;-57
2021/02/28 04:30:18;;;;;;;1.80;1.70;;;;;;;17.90;45.28;102353.91;;;;-56
2021/02/28 04:33:18;;;;;;;1.89;1.77;;;;;;;17.89;45.36;102354.37;;;;-56
2021/02/28 04:36:18;;;;;;;1.80;1.70;;;;;;;17.88;45.25;102354.70;;;;-57
2021/02/28 04:39:18;;;;;;;1.77;1.67;;;;;;;17.87;45.36;102352.74;;;;-56
2021/02/28 04:42:18;;;;;;;1.71;1.61;;;;;;;17.87;45.28;102352.97;;;;-56
2021/02/28 04:45:18;;;;;;;1.99;1.78;;;;;;;17.86;45.35;102350.16;;;;-57
2021/02/28 04:48:18;;;;;;;1.90;1.80;;;;;;;17.86;45.30;102352.19;;;;-56
2021/02/28 04:51:18;;;;;;;1.89;1.73;;;;;;;17.85;45.27;102344.44;;;;-56
2021/02/28 04:54:18;;;;;;;1.85;1.72;;;;;;;17.84;45.29;102346.34;;;;-57
2021/02/28 04:57:18;;;;;;;1.86;1.68;;;;;;;17.83;45.28;102345.50;;;;-57
2021/02/28 05:00:18;;;;;;;1.69;1.59;;;;;;;17.82;45.29;102341.93;;;;-57
2021/02/28 05:03:18;;;;;;;2.53;1.81;;;;;;;17.82;45.33;102343.61;;;;-57
2021/02/28 05:06:18;;;;;;;1.88;1.69;;;;;;;17.81;45.32;102340.19;;;;-57
2021/02/28 05:09:18;;;;;;;1.84;1.72;;;;;;;17.80;45.29;102334.38;;;;-57
2021/02/28 05:12:18;;;;;;;1.95;1.81;;;;;;;17.79;45.25;102329.95;;;;-57
2021/02/28 05:15:18;;;;;;;2.01;1.81;;;;;;;17.78;45.24;102333.97;;;;-56
2021/02/28 05:18:18;;;;;;;2.17;1.79;;;;;;;17.78;45.23;102335.87;;;;-57
2021/02/28 05:21:18;;;;;;;1.86;1.76;;;;;;;17.77;45.27;102334.03;;;;-56
2021/02/28 05:24:18;;;;;;;1.86;1.65;;;;;;;17.77;45.29;102331.98;;;;-57
2021/02/28 05:27:18;;;;;;;1.91;1.75;;;;;;;17.76;45.20;102325.08;;;;-57
2021/02/28 05:30:18;;;;;;;1.99;1.79;;;;;;;17.75;45.33;102317.95;;;;-56
2021/02/28 05:33:18;;;;;;;2.80;1.85;;;;;;;17.75;45.18;102320.13;;;;-57
2021/02/28 05:36:18;;;;;;;2.03;1.90;;;;;;;17.75;45.32;102318.10;;;;-52
2021/02/28 05:39:18;;;;;;;1.83;1.73;;;;;;;17.74;45.21;102316.58;;;;-52
2021/02/28 05:42:18;;;;;;;1.89;1.77;;;;;;;17.73;45.32;102310.96;;;;-57
2021/02/28 05:45:18;;;;;;;1.90;1.70;;;;;;;17.72;45.24;102313.58;;;;-57
2021/02/28 05:48:18;;;;;;;1.89;1.71;;;;;;;17.70;45.21;102314.43;;;;-57
2021/02/28 05:51:18;;;;;;;1.86;1.76;;;;;;;17.71;45.22;102311.45;;;;-57
2021/02/28 05:54:18;;;;;;;2.25;1.75;;;;;;;17.70;45.27;102308.83;;;;-57
2021/02/28 05:57:18;;;;;;;2.14;1.91;;;;;;;17.69;45.18;102309.09;;;;-57
2021/02/28 06:00:18;;;;;;;1.93;1.83;;;;;;;17.67;45.19;102303.90;;;;-52
2021/02/28 06:03:18;;;;;;;1.98;1.78;;;;;;;17.67;45.28;102303.73;;;;-51
2021/02/28 06:06:19;;;;;;;2.05;1.85;;;;;;;17.66;45.21;102300.42;;;;-51
2021/02/28 06:09:19;;;;;;;1.85;1.73;;;;;;;17.65;45.23;102301.55;;;;-52
2021/02/28 06:12:19;;;;;;;2.09;1.89;;;;;;;17.64;45.27;102302.41;;;;-53
2021/02/28 06:15:18;;;;;;;2.09;1.90;;;;;;;17.64;45.23;102306.47;;;;-51
2021/02/28 06:18:18;;;;;;;2.06;1.87;;;;;;;17.63;45.26;102311.26;;;;-56
2021/02/28 06:21:18;;;;;;;2.15;1.95;;;;;;;17.63;45.16;102316.77;;;;-56
2021/02/28 06:24:18;;;;;;;2.08;1.90;;;;;;;17.63;45.23;102318.80;;;;-56
2021/02/28 06:27:18;;;;;;;2.03;1.86;;;;;;;17.63;45.19;102321.22;;;;-56
2021/02/28 06:30:18;;;;;;;1.80;1.70;;;;;;;17.63;45.28;102319.22;;;;-51
2021/02/28 06:33:18;;;;;;;1.91;1.81;;;;;;;17.64;45.31;102324.54;;;;-51
2021/02/28 06:36:18;;;;;;;2.03;1.80;;;;;;;17.66;45.21;102327.39;;;;-59
2021/02/28 06:39:18;;;;;;;2.82;2.01;;;;;;;17.66;45.23;102322.28;;;;-58
2021/02/28 06:42:18;;;;;;;1.93;1.81;;;;;;;17.68;45.33;102322.03;;;;-51
2021/02/28 06:45:18;;;;;;;2.03;1.71;;;;;;;17.71;45.45;102321.91;;;;-52
2021/02/28 06:48:18;;;;;;;1.80;1.70;;;;;;;17.74;45.46;102321.28;;;;-57
2021/02/28 06:51:18;;;;;;;1.81;1.71;;;;;;;17.77;45.42;102322.34;;;;-57
2021/02/28 06:54:18;;;;;;;1.97;1.77;;;;;;;17.81;45.45;102317.57;;;;-56
2021/02/28 06:57:18;;;;;;;1.99;1.79;;;;;;;17.86;45.35;102317.38;;;;-56
2021/02/28 07:00:18;;;;;;;2.35;1.83;;;;;;;17.91;45.31;102317.63;;;;-57
2021/02/28 07:03:18;;;;;;;2.25;1.89;;;;;;;17.95;45.31;102315.40;;;;-57
2021/02/28 07:06:18;;;;;;;1.73;1.63;;;;;;;17.99;45.34;102319.02;;;;-59
2021/02/28 07:09:18;;;;;;;1.91;1.81;;;;;;;18.03;45.34;102321.35;;;;-59
2021/02/28 07:12:18;;;;;;;1.93;1.76;;;;;;;18.05;45.33;102315.75;;;;-52
2021/02/28 07:15:18;;;;;;;1.89;1.79;;;;;;;18.08;45.41;102315.66;;;;-52
2021/02/28 07:18:18;;;;;;;2.09;1.61;;;;;;;18.10;45.45;102320.77;;;;-51
2021/02/28 07:21:18;;;;;;;1.85;1.75;;;;;;;18.11;45.37;102319.42;;;;-59
2021/02/28 07:24:18;;;;;;;1.85;1.73;;;;;;;18.13;45.37;102318.45;;;;-52
2021/02/28 07:27:18;;;;;;;1.80;1.70;;;;;;;18.14;45.40;102317.78;;;;-51
2021/02/28 07:30:18;;;;;;;1.72;1.62;;;;;;;18.15;45.30;102322.50;;;;-51
2021/02/28 07:33:18;;;;;;;2.01;1.81;;;;;;;18.15;45.30;102317.07;;;;-59
2021/02/28 07:36:18;;;;;;;1.97;1.80;;;;;;;18.15;45.37;102322.91;;;;-57
2021/02/28 07:39:18;;;;;;;1.98;1.80;;;;;;;18.15;45.37;102318.30;;;;-51
2021/02/28 07:42:18;;;;;;;1.74;1.60;;;;;;;18.17;45.32;102320.06;;;;-51
2021/02/28 07:45:18;;;;;;;2.20;1.79;;;;;;;18.17;45.35;102316.09;;;;-51
2021/02/28 07:48:18;;;;;;;1.80;1.70;;;;;;;18.16;45.24;102316.32;;;;-52
2021/02/28 07:51:18;;;;;;;1.77;1.67;;;;;;;18.15;45.29;102317.16;;;;-59
2021/02/28 07:54:18;;;;;;;1.95;1.80;;;;;;;18.16;45.21;102317.05;;;;-59
2021/02/28 07:57:18;;;;;;;2.01;1.87;;;;;;;18.16;45.14;102312.82;;;;-52
2021/02/28 08:00:18;;;;;;;2.27;1.91;;;;;;;18.16;45.14;102318.03;;;;-52
2021/02/28 08:04:18;;;;;;;2.09;1.89;;;;;;;18.15;45.17;102312.53;;;;-59
2021/02/28 08:07:18;;;;;;;2.20;2.00;;;;;;;18.15;45.10;102318.28;;;;-59
2021/02/28 08:10:18;;;;;;;2.18;1.90;;;;;;;18.14;45.12;102317.86;;;;-51
2021/02/28 08:13:18;;;;;;;1.90;1.80;;;;;;;18.14;45.14;102323.05;;;;-51
2021/02/28 08:16:18;;;;;;;2.14;1.94;;;;;;;18.14;45.17;102325.30;;;;-52
2021/02/28 08:19:18;;;;;;;2.02;1.82;;;;;;;18.13;45.16;102323.16;;;;-57
2021/02/28 08:22:18;;;;;;;1.95;1.85;;;;;;;18.12;45.27;102321.00;;;;-52
2021/02/28 08:25:18;;;;;;;2.08;1.88;;;;;;;18.11;45.14;102319.66;;;;-52
2021/02/28 08:28:18;;;;;;;2.20;2.00;;;;;;;18.11;45.10;102322.67;;;;-52
2021/02/28 08:31:18;;;;;;;2.10;1.90;;;;;;;18.10;45.03;102321.99;;;;-53
2021/02/28 08:34:20;;;;;;;2.10;1.90;;;;;;;18.10;45.12;102321.83;;;;-59
2021/02/28 08:37:18;;;;;;;2.27;2.06;;;;;;;18.09;45.18;102324.19;;;;-59
2021/02/28 08:40:18;;;;;;;2.45;1.99;;;;;;;18.08;45.12;102322.70;;;;-59
2021/02/28 08:43:18;;;;;;;2.20;2.00;;;;;;;18.07;45.07;102322.66;;;;-53
2021/02/28 08:46:18;;;;;;;2.41;2.13;;;;;;;18.06;45.24;102324.41;;;;-51
2021/02/28 08:49:18;;;;;;;2.27;2.07;;;;;;;18.05;45.17;102330.19;;;;-59
2021/02/28 08:53:18;;;;;;;7.76;6.09;;;;;;;17.93;40.85;102328.45;;;;-50
2021/02/28 08:56:18;;;;;;;9.46;7.03;;;;;;;17.36;39.85;102333.34;;;;-52
2021/02/28 08:59:18;;;;;;;10.05;6.46;;;;;;;17.39;41.25;102331.42;;;;-60
2021/02/28 09:02:18;;;;;;;7.75;6.21;;;;;;;17.48;42.15;102331.03;;;;-53
2021/02/28 09:05:18;;;;;;;6.56;5.70;;;;;;;17.55;42.38;102324.20;;;;-53
2021/02/28 09:08:18;;;;;;;5.65;4.93;;;;;;;17.61;42.61;102319.04;;;;-60
2021/02/28 09:11:18;;;;;;;5.56;4.55;;;;;;;17.66;42.98;102320.00;;;;-59
2021/02/28 09:14:18;;;;;;;5.00;4.45;;;;;;;17.71;43.05;102318.17;;;;-60
2021/02/28 09:17:18;;;;;;;5.24;4.31;;;;;;;17.77;43.14;102318.52;;;;-60
2021/02/28 09:20:18;;;;;;;4.60;4.11;;;;;;;17.81;43.57;102313.25;;;;-52
2021/02/28 09:23:18;;;;;;;6.03;4.16;;;;;;;17.87;43.70;102314.03;;;;-53
2021/02/28 09:26:18;;;;;;;5.12;3.97;;;;;;;17.93;43.68;102310.49;;;;-60
2021/02/28 09:29:18;;;;;;;4.48;3.95;;;;;;;17.97;43.70;102310.59;;;;-53
2021/02/28 09:32:18;;;;;;;5.86;3.89;;;;;;;18.04;44.07;102308.19;;;;-51
2021/02/28 09:35:18;;;;;;;4.14;3.73;;;;;;;18.09;43.72;102313.66;;;;-57
2021/02/28 09:38:18;;;;;;;4.79;3.79;;;;;;;18.13;43.98;102310.26;;;;-51
2021/02/28 09:41:18;;;;;;;4.64;3.67;;;;;;;18.17;44.14;102305.72;;;;-51
2021/02/28 09:44:18;;;;;;;4.17;3.77;;;;;;;18.22;43.87;102306.22;;;;-47
2021/02/28 09:47:18;;;;;;;6.51;3.92;;;;;;;18.26;44.35;102305.25;;;;-53
2021/02/28 09:50:18;;;;;;;4.44;3.69;;;;;;;18.28;44.19;102302.05;;;;-52
2021/02/28 09:53:18;;;;;;;4.37;3.55;;;;;;;18.33;44.02;102309.45;;;;-57
2021/02/28 09:56:20;;;;;;;4.78;3.61;;;;;;;18.36;44.04;102306.73;;;;-54
2021/02/28 09:59:18;;;;;;;5.60;3.74;;;;;;;18.41;44.05;102313.69;;;;-58
2021/02/28 10:02:18;;;;;;;4.31;3.48;;;;;;;18.46;43.92;102308.50;;;;-49
2021/02/28 10:05:18;;;;;;;4.47;3.60;;;;;;;18.48;44.13;102311.03;;;;-51
2021/02/28 10:08:18;;;;;;;4.62;3.65;;;;;;;18.51;44.06;102310.92;;;;-62
2021/02/28 10:11:18;;;;;;;4.85;3.39;;;;;;;18.54;44.00;102310.53;;;;-59
2021/02/28 10:14:18;;;;;;;4.69;3.71;;;;;;;18.56;43.94;102307.61;;;;-62
2021/02/28 10:17:18;;;;;;;4.69;3.69;;;;;;;18.60;44.22;102304.03;;;;-58
2021/02/28 10:20:18;;;;;;;4.17;3.67;;;;;;;18.62;44.08;102302.59;;;;-61
2021/02/28 10:23:18;;;;;;;4.51;3.61;;;;;;;18.65;44.10;102299.27;;;;-57
2021/02/28 10:26:18;;;;;;;4.72;3.77;;;;;;;18.68;43.94;102299.09;;;;-53
2021/02/28 10:29:18;;;;;;;4.03;3.48;;;;;;;18.73;44.22;102290.16;;;;-50
2021/02/28 10:32:18;;;;;;;4.30;3.51;;;;;;;18.74;43.91;102293.31;;;;-58
2021/02/28 10:35:18;;;;;;;4.02;3.53;;;;;;;18.77;44.01;102295.44;;;;-52
2021/02/28 10:38:18;;;;;;;3.89;3.46;;;;;;;18.80;43.96;102290.98;;;;-52
2021/02/28 10:41:18;;;;;;;4.03;3.34;;;;;;;18.82;44.15;102286.39;;;;-58
2021/02/28 10:44:18;;;;;;;4.16;3.71;;;;;;;18.84;44.16;102284.19;;;;-48
2021/02/28 10:47:18;;;;;;;3.92;3.34;;;;;;;18.87;44.19;102285.86;;;;-49
2021/02/28 10:50:20;;;;;;;4.44;3.45;;;;;;;18.88;43.97;102289.67;;;;-44
2021/02/28 10:53:18;;;;;;;5.09;3.31;;;;;;;18.92;44.14;102287.76;;;;-50
2021/02/28 10:56:18;;;;;;;4.57;3.42;;;;;;;18.92;44.13;102282.88;;;;-48
2021/02/28 10:59:18;;;;;;;4.86;3.23;;;;;;;18.93;44.22;102277.47;;;;-51
2021/02/28 11:02:18;;;;;;;3.83;3.24;;;;;;;18.96;44.11;102265.23;;;;-51
2021/02/28 11:05:18;;;;;;;5.07;3.55;;;;;;;18.95;44.20;102263.67;;;;-50
2021/02/28 11:08:18;;;;;;;3.73;3.35;;;;;;;18.97;44.18;102259.43;;;;-51
2021/02/28 11:11:18;;;;;;;3.72;3.31;;;;;;;19.01;44.17;102259.58;;;;-50
2021/02/28 11:14:18;;;;;;;4.11;3.45;;;;;;;19.00;44.05;102258.56;;;;-51
2021/02/28 11:17:18;;;;;;;4.18;3.47;;;;;;;19.02;44.26;102254.58;;;;-53
2021/02/28 11:20:18;;;;;;;4.79;3.73;;;;;;;19.04;44.29;102249.92;;;;-49
2021/02/28 11:23:18;;;;;;;5.51;3.61;;;;;;;19.04;44.63;102243.52;;;;-48
2021/02/28 11:26:19;;;;;;;6.87;3.59;;;;;;;19.02;44.46;102241.73;;;;-49
2021/02/28 11:29:18;;;;;;;6.09;3.63;;;;;;;19.04;44.85;102238.39;;;;-55
2021/02/28 11:32:18;;;;;;;6.13;3.30;;;;;;;19.06;44.93;102233.02;;;;-58
2021/02/28 11:35:18;;;;;;;5.94;3.59;;;;;;;19.13;44.77;102231.88;;;;-53
2021/02/28 11:38:18;;;;;;;6.27;3.67;;;;;;;19.18;44.39;102219.07;;;;-51
2021/02/28 11:41:18;;;;;;;5.01;3.47;;;;;;;19.22;44.21;102216.37;;;;-51
2021/02/28 11:44:18;;;;;;;4.58;3.17;;;;;;;19.24;44.18;102204.91;;;;-51
2021/02/28 11:47:18;;;;;;;3.37;3.07;;;;;;;19.26;44.06;102206.85;;;;-51
2021/02/28 11:50:18;;;;;;;4.33;3.29;;;;;;;19.28;44.01;102207.73;;;;-52
2021/02/28 11:53:18;;;;;;;6.37;3.20;;;;;;;19.30;43.91;102205.12;;;;-63
2021/02/28 11:56:18;;;;;;;4.11;2.99;;;;;;;19.31;43.92;102196.84;;;;-63
2021/02/28 11:59:18;;;;;;;3.72;3.09;;;;;;;19.33;43.84;102187.97;;;;-63
2021/02/28 12:02:18;;;;;;;4.97;3.01;;;;;;;19.34;43.88;102193.44;;;;-64
2021/02/28 12:05:18;;;;;;;4.57;3.30;;;;;;;19.35;43.82;102185.85;;;;-64
2021/02/28 12:08:18;;;;;;;3.81;2.95;;;;;;;19.35;43.92;102178.78;;;;-60
2021/02/28 12:11:18;;;;;;;4.39;2.99;;;;;;;19.38;44.34;102178.38;;;;-57
2021/02/28 12:14:18;;;;;;;4.03;3.09;;;;;;;19.43;44.49;102169.29;;;;-62
2021/02/28 12:17:18;;;;;;;5.65;2.95;;;;;;;19.44;44.10;102164.92;;;;-59
2021/02/28 12:20:20;;;;;;;3.98;3.06;;;;;;;19.45;43.97;102157.89;;;;-58
2021/02/28 12:23:19;;;;;;;4.39;3.07;;;;;;;19.46;43.89;102149.22;;;;-55
2021/02/28 12:26:18;;;;;;;3.40;2.91;;;;;;;19.46;43.92;102145.95;;;;-56
2021/02/28 12:29:18;;;;;;;3.85;2.69;;;;;;;19.47;43.88;102140.08;;;;-55
2021/02/28 12:32:18;;;;;;;3.00;2.73;;;;;;;19.49;43.79;102139.58;;;;-56
2021/02/28 12:35:18;;;;;;;3.27;2.74;;;;;;;19.50;43.79;102131.95;;;;-53
2021/02/28 12:38:18;;;;;;;3.47;2.80;;;;;;;19.52;43.78;102127.70;;;;-53
2021/02/28 12:41:18;;;;;;;3.90;3.00;;;;;;;19.54;43.77;102130.30;;;;-59
2021/02/28 12:44:18;;;;;;;3.09;2.84;;;;;;;19.55;43.79;102127.91;;;;-58
2021/02/28 12:47:18;;;;;;;3.14;2.61;;;;;;;19.57;43.78;102126.06;;;;-53
2021/02/28 12:50:18;;;;;;;3.35;2.76;;;;;;;19.57;43.74;102122.77;;;;-53
2021/02/28 12:53:18;;;;;;;3.44;2.71;;;;;;;19.59;43.67;102120.44;;;;-53
2021/02/28 12:56:18;;;;;;;3.51;2.90;;;;;;;19.61;43.71;102113.02;;;;-54
2021/02/28 12:59:18;;;;;;;2.85;2.62;;;;;;;19.62;43.66;102109.34;;;;-54
2021/02/28 13:02:18;;;;;;;3.03;2.57;;;;;;;19.63;43.63;102105.97;;;;-55
2021/02/28 13:05:18;;;;;;;3.21;2.86;;;;;;;19.63;43.67;102101.94;;;;-54
2021/02/28 13:08:18;;;;;;;3.21;2.65;;;;;;;19.64;43.58;102100.13;;;;-55
2021/02/28 13:11:18;;;;;;;3.00;2.68;;;;;;;19.64;43.61;102098.09;;;;-54
2021/02/28 13:14:18;;;;;;;5.39;2.81;;;;;;;19.58;43.48;102093.84;;;;-54
2021/02/28 13:17:18;;;;;;;3.18;2.83;;;;;;;19.55;43.00;102086.80;;;;-53
2021/02/28 13:20:18;;;;;;;3.37;2.86;;;;;;;19.53;43.22;102079.86;;;;-51
2021/02/28 13:23:18;;;;;;;3.43;2.95;;;;;;;19.52;43.45;102078.50;;;;-49
2021/02/28 13:26:18;;;;;;;3.28;2.75;;;;;;;19.50;43.37;102077.71;;;;-59
2021/02/28 13:29:18;;;;;;;5.25;3.15;;;;;;;19.48;43.42;102073.50;;;;-49
2021/02/28 13:32:18;;;;;;;3.39;2.78;;;;;;;19.49;44.01;102068.43;;;;-61
2021/02/28 13:35:18;;;;;;;5.10;2.88;;;;;;;19.49;43.94;102061.83;;;;-57
2021/02/28 13:38:18;;;;;;;4.35;2.87;;;;;;;19.47;43.92;102053.64;;;;-58
2021/02/28 13:41:18;;;;;;;3.54;2.76;;;;;;;19.47;43.94;102053.89;;;;-63
2021/02/28 13:44:18;;;;;;;3.41;2.91;;;;;;;19.46;43.85;102049.37;;;;-63
2021/02/28 13:47:18;;;;;;;4.93;2.82;;;;;;;19.50;43.93;102051.13;;;;-57
2021/02/28 13:50:18;;;;;;;4.07;2.79;;;;;;;19.55;43.68;102044.14;;;;-57
2021/02/28 13:53:18;;;;;;;3.01;2.69;;;;;;;19.58;43.62;102040.08;;;;-51
2021/02/28 13:56:18;;;;;;;4.09;2.70;;;;;;;19.59;43.51;102040.45;;;;-51
2021/02/28 13:59:18;;;;;;;3.13;2.48;;;;;;;19.61;43.48;102033.36;;;;-52
2021/02/28 14:02:18;;;;;;;3.51;2.69;;;;;;;19.62;43.40;102028.73;;;;-52
2021/02/28 14:05:18;;;;;;;2.97;2.55;;;;;;;19.62;43.40;102022.95;;;;-53
2021/02/28 14:08:18;;;;;;;2.91;2.65;;;;;;;19.62;43.38;102017.27;;;;-51
2021/02/28 14:11:18;;;;;;;3.80;2.60;;;;;;;19.63;43.40;102018.05;;;;-51
2021/02/28 14:14:18;;;;;;;3.97;2.89;;;;;;;19.64;43.36;102016.19;;;;-51
2021/02/28 14:17:18;;;;;;;3.63;2.72;;;;;;;19.64;43.36;102014.73;;;;-51
2021/02/28 14:20:18;;;;;;;3.08;2.61;;;;;;;19.64;43.33;102012.94;;;;-51
2021/02/28 14:23:19;;;;;;;3.22;2.31;;;;;;;19.64;43.37;102010.58;;;;-51
2021/02/28 14:26:18;;;;;;;2.69;2.43;;;;;;;19.63;43.47;102002.84;;;;-57
2021/02/28 14:29:18;;;;;;;3.09;2.59;;;;;;;19.66;43.37;102003.47;;;;-57
2021/02/28 14:32:18;;;;;;;3.09;2.48;;;;;;;19.65;43.43;102001.59;;;;-52
2021/02/28 14:35:18;;;;;;;3.14;2.45;;;;;;;19.66;43.33;102002.51;;;;-53
2021/02/28 14:38:18;;;;;;;2.65;2.41;;;;;;;19.65;43.34;102001.72;;;;-52
2021/02/28 14:41:18;;;;;;;2.85;2.41;;;;;;;19.66;43.42;101997.95;;;;-54
2021/02/28 14:44:18;;;;;;;3.35;2.57;;;;;;;19.65;43.42;101989.80;;;;-52
2021/02/28 14:47:18;;;;;;;2.97;2.34;;;;;;;19.66;43.39;101989.33;;;;-52
2021/02/28 14:50:18;;;;;;;2.51;2.31;;;;;;;19.66;43.39;101981.44;;;;-52
2021/02/28 14:53:18;;;;;;;2.75;2.35;;;;;;;19.68;43.40;101978.16;;;;-52
2021/02/28 14:56:18;;;;;;;2.61;2.41;;;;;;;19.67;43.36;101976.69;;;;-57
2021/02/28 14:59:18;;;;;;;2.61;2.39;;;;;;;19.69;43.33;101975.25;;;;-51
2021/02/28 15:02:18;;;;;;;2.72;2.23;;;;;;;19.68;43.33;101969.95;;;;-52
2021/02/28 15:05:18;;;;;;;2.59;2.39;;;;;;;19.68;43.36;101969.37;;;;-51
2021/02/28 15:08:18;;;;;;;2.57;2.37;;;;;;;19.67;43.37;101966.16;;;;-51
2021/02/28 15:11:18;;;;;;;3.14;2.40;;;;;;;19.67;43.37;101963.44;;;;-52
2021/02/28 15:14:18;;;;;;;2.49;2.29;;;;;;;19.67;43.40;101961.88;;;;-51
2021/02/28 15:17:18;;;;;;;2.46;2.20;;;;;;;19.67;43.33;101960.09;;;;-51
2021/02/28 15:20:18;;;;;;;2.58;2.38;;;;;;;19.65;43.53;101955.16;;;;-52
2021/02/28 15:23:19;;;;;;;3.62;2.41;;;;;;;19.65;43.71;101955.40;;;;-49
2021/02/28 15:26:18;;;;;;;3.12;2.71;;;;;;;19.59;42.82;101957.98;;;;-50
2021/02/28 15:29:18;;;;;;;5.94;2.75;;;;;;;19.56;43.07;101959.02;;;;-44
2021/02/28 15:32:18;;;;;;;4.04;2.79;;;;;;;19.56;43.25;101960.30;;;;-48
2021/02/28 15:35:18;;;;;;;4.19;2.56;;;;;;;19.55;43.49;101958.84;;;;-56
2021/02/28 15:38:19;;;;;;;3.38;2.67;;;;;;;19.62;43.78;101955.45;;;;-58
2021/02/28 15:41:18;;;;;;;2.60;2.26;;;;;;;19.68;43.91;101950.50;;;;-57
2021/02/28 15:44:18;;;;;;;3.71;2.54;;;;;;;19.73;44.08;101953.20;;;;-64
2021/02/28 15:47:18;;;;;;;10.52;2.59;;;;;;;19.78;44.34;101955.55;;;;-53
2021/02/28 15:50:20;;;;;;;3.50;2.60;;;;;;;19.85;44.52;101958.11;;;;-55
2021/02/28 15:53:18;;;;;;;34.79;4.26;;;;;;;19.88;45.79;101956.02;;;;-67
2021/02/28 15:56:18;;;;;;;12.17;2.89;;;;;;;19.95;45.18;101954.24;;;;-58
2021/02/28 15:59:18;;;;;;;8.05;2.81;;;;;;;19.98;44.97;101957.00;;;;-62
2021/02/28 16:02:18;;;;;;;7.31;2.59;;;;;;;19.98;45.20;101956.14;;;;-63
2021/02/28 16:05:18;;;;;;;6.27;2.61;;;;;;;20.04;45.39;101958.06;;;;-59
2021/02/28 16:08:18;;;;;;;3.53;2.49;;;;;;;19.94;44.16;101957.37;;;;-62
2021/02/28 16:11:18;;;;;;;6.75;2.89;;;;;;;19.96;44.22;101959.14;;;;-64
2021/02/28 16:14:18;;;;;;;5.45;2.65;;;;;;;20.02;44.15;101962.97;;;;-61
2021/02/28 16:17:18;;;;;;;4.18;2.43;;;;;;;20.07;44.18;101966.31;;;;-60
2021/02/28 16:20:19;;;;;;;4.63;2.37;;;;;;;20.12;44.19;101967.08;;;;-60
2021/02/28 16:23:18;;;;;;;5.54;2.58;;;;;;;20.12;44.29;101970.01;;;;-59
2021/02/28 16:26:18;;;;;;;3.19;2.47;;;;;;;20.17;44.41;101974.61;;;;-58
2021/02/28 16:29:18;;;;;;;3.07;2.41;;;;;;;20.20;44.26;101976.09;;;;-60
2021/02/28 16:32:18;;;;;;;5.02;2.60;;;;;;;20.21;44.16;101978.67;;;;-58
2021/02/28 16:35:18;;;;;;;4.99;2.37;;;;;;;20.24;44.38;101975.97;;;;-61
2021/02/28 16:38:18;;;;;;;2.92;2.45;;;;;;;20.27;44.51;101977.26;;;;-60
2021/02/28 16:41:18;;;;;;;3.40;2.56;;;;;;;20.26;44.38;101979.94;;;;-63
2021/02/28 16:44:18;;;;;;;3.35;2.37;;;;;;;20.27;44.39;101975.79;;;;-63